Coal City, Indiana
Current Conditions -  °F | °C
As of 1:53 PM on Sunday 23 Nov 2014 (Local Time) from KHUF Reporting Station
Moderate Rain Moderate Rain  
Wind Chill: 52°   Ceiling: 600
Heat Index: 52°   Visibility: 1.7mi
Dew Point: 50°   Wind: 12mph
Humidity: 93%   Direction: 150°SSE
Pressure: 29.6"   Gusts: NA
Location:  39.23°N, 87.05°W
Report Text: KHUF 231853Z 15010KT 1 3/4SM RA BR BKN006 OVC011 11/10 A2960 RMK AO2 RAE1758B21 SLP024 P0001 T01110100
Loading
Personal Weather Stations






























Interactive Weather Map New forecast layout! Learn more

10-Day Weather Forecast

Advertisements
Track Severe Weather on mobile